createdAt,value
2023-03-08T00:00:14.585Z,1.80
2023-03-08T00:02:41.929Z,2.13
2023-03-08T00:05:09.896Z,3.25
2023-03-08T00:07:37.659Z,1.55
2023-03-08T00:10:05.669Z,1.83
2023-03-08T00:12:32.944Z,2.05
2023-03-08T00:15:00.271Z,2.35
2023-03-08T00:17:27.647Z,2.38
2023-03-08T00:19:54.973Z,2.20
2023-03-08T00:22:22.279Z,2.10
2023-03-08T00:24:49.586Z,2.45
2023-03-08T00:27:16.830Z,1.90
2023-03-08T00:29:44.294Z,2.45
2023-03-08T00:32:11.658Z,2.17
2023-03-08T00:34:39.018Z,1.95
2023-03-08T00:37:06.360Z,1.92
2023-03-08T00:39:33.728Z,2.47
2023-03-08T00:42:01.048Z,2.33
2023-03-08T00:44:28.310Z,2.08
2023-03-08T00:46:55.652Z,2.05
2023-03-08T00:49:23.050Z,1.90
2023-03-08T00:51:51.651Z,2.30
2023-03-08T00:54:18.910Z,1.98
2023-03-08T00:56:46.252Z,1.75
2023-03-08T00:59:13.653Z,2.42
2023-03-08T01:01:41.307Z,2.03
2023-03-08T01:04:08.685Z,2.40
2023-03-08T01:06:36.251Z,1.77
2023-03-08T01:09:04.297Z,1.80
2023-03-08T01:11:33.193Z,2.30
2023-03-08T01:14:00.657Z,2.47
2023-03-08T01:16:29.676Z,2.40
2023-03-08T01:18:59.657Z,2.72
2023-03-08T01:21:27.429Z,3.47
2023-03-08T01:23:54.925Z,2.50
2023-03-08T01:26:23.405Z,2.85
2023-03-08T01:28:51.275Z,2.97
2023-03-08T01:31:19.975Z,3.90
2023-03-08T01:33:47.894Z,2.72
2023-03-08T01:36:17.560Z,3.37
2023-03-08T01:38:45.531Z,5.00
2023-03-08T01:41:17.723Z,5.15
2023-03-08T01:43:45.564Z,6.78
2023-03-08T01:46:12.908Z,5.60
2023-03-08T01:48:47.377Z,4.70
2023-03-08T01:51:21.119Z,6.32
2023-03-08T01:53:48.694Z,6.70
2023-03-08T01:56:17.383Z,6.80
2023-03-08T01:58:46.644Z,7.63
2023-03-08T02:01:14.850Z,6.88
2023-03-08T02:03:42.895Z,6.97
2023-03-08T02:06:10.430Z,7.30
2023-03-08T02:08:37.742Z,7.28
2023-03-08T02:11:05.296Z,8.55
2023-03-08T02:13:34.218Z,9.20
2023-03-08T02:16:03.570Z,8.05
2023-03-08T02:18:31.105Z,8.52
2023-03-08T02:20:59.646Z,7.37
2023-03-08T02:23:27.094Z,8.02
2023-03-08T02:25:55.982Z,7.68
2023-03-08T02:28:24.565Z,7.22
2023-03-08T02:30:53.649Z,8.30
2023-03-08T02:33:20.972Z,8.32
2023-03-08T02:35:50.537Z,12.25
2023-03-08T02:38:19.039Z,17.08
2023-03-08T02:40:46.938Z,19.55
2023-03-08T02:43:14.393Z,22.30
2023-03-08T02:45:41.672Z,23.92
2023-03-08T02:48:09.590Z,24.58
2023-03-08T02:50:37.208Z,23.23
2023-03-08T02:53:05.281Z,20.15
2023-03-08T02:55:36.162Z,16.35
2023-03-08T02:58:09.825Z,18.95
2023-03-08T03:00:37.558Z,15.30
2023-03-08T03:03:05.292Z,17.73
2023-03-08T03:05:32.737Z,16.40
2023-03-08T03:08:02.999Z,15.20
2023-03-08T03:10:30.928Z,14.77
2023-03-08T03:12:58.222Z,13.95
2023-03-08T03:15:29.438Z,14.43
2023-03-08T03:17:59.051Z,12.93
2023-03-08T03:20:26.645Z,13.43
2023-03-08T03:22:53.955Z,14.40
2023-03-08T03:25:27.618Z,13.40
2023-03-08T03:27:55.665Z,12.88
2023-03-08T03:30:25.075Z,14.68
2023-03-08T03:32:53.235Z,13.82
2023-03-08T03:35:26.540Z,15.50
2023-03-08T03:37:53.967Z,15.13
2023-03-08T03:40:22.313Z,12.93
2023-03-08T03:42:55.017Z,16.80
2023-03-08T03:45:22.297Z,15.77
2023-03-08T03:47:50.270Z,14.68
2023-03-08T03:50:17.922Z,15.10
2023-03-08T03:52:56.472Z,15.30
2023-03-08T03:55:24.080Z,14.98
2023-03-08T03:57:52.212Z,15.60
2023-03-08T04:00:20.118Z,15.98
2023-03-08T04:02:55.453Z,14.65
2023-03-08T04:05:22.784Z,14.77
2023-03-08T04:07:52.915Z,15.93
2023-03-08T04:10:23.442Z,14.63
2023-03-08T04:12:52.580Z,13.60
2023-03-08T04:15:21.757Z,14.05
2023-03-08T04:17:49.509Z,14.13
2023-03-08T04:20:17.075Z,14.70
2023-03-08T04:22:52.657Z,16.25
2023-03-08T04:25:26.805Z,14.85
2023-03-08T04:27:58.853Z,14.30
2023-03-08T04:30:26.597Z,13.88
2023-03-08T04:32:55.685Z,10.57
2023-03-08T04:35:27.612Z,13.52
2023-03-08T04:37:55.482Z,11.80
2023-03-08T04:40:25.556Z,10.82
2023-03-08T04:42:58.929Z,9.95
2023-03-08T04:45:32.492Z,9.48
2023-03-08T04:48:03.608Z,9.98
2023-03-08T04:50:32.816Z,10.65
2023-03-08T04:53:00.128Z,10.60
2023-03-08T04:55:28.728Z,9.75
2023-03-08T04:57:55.974Z,10.85
2023-03-08T05:00:23.832Z,10.70
2023-03-08T05:02:51.662Z,10.30
2023-03-08T05:05:19.748Z,11.60
2023-03-08T05:07:47.783Z,11.07
2023-03-08T05:10:14.986Z,10.57
2023-03-08T05:12:42.725Z,11.38
2023-03-08T05:15:10.414Z,12.27
2023-03-08T05:17:37.715Z,11.27
2023-03-08T05:20:05.412Z,12.10
2023-03-08T05:22:55.105Z,11.57
2023-03-08T05:25:25.999Z,13.25
2023-03-08T05:27:54.156Z,14.23
2023-03-08T05:30:22.698Z,15.45
2023-03-08T05:32:51.804Z,17.45
2023-03-08T05:35:19.646Z,17.73
2023-03-08T05:37:51.420Z,19.52
2023-03-08T05:40:18.918Z,18.92
2023-03-08T05:42:47.448Z,16.30
2023-03-08T05:45:16.109Z,19.55
2023-03-08T05:47:43.519Z,23.27
2023-03-08T05:50:11.110Z,22.17
2023-03-08T05:52:42.538Z,22.20
2023-03-08T05:55:13.329Z,23.33
2023-03-08T05:57:41.297Z,18.85
2023-03-08T06:00:09.062Z,23.13
2023-03-08T06:02:43.053Z,22.77
2023-03-08T06:05:11.197Z,18.30
2023-03-08T06:07:39.292Z,22.88
2023-03-08T06:10:11.530Z,25.38
2023-03-08T06:12:39.501Z,24.30
2023-03-08T06:15:09.660Z,22.38
2023-03-08T06:17:38.292Z,24.02
2023-03-08T06:20:06.201Z,24.08
2023-03-08T06:25:03.306Z,22.70
2023-03-08T06:27:34.597Z,22.40
2023-03-08T06:30:06.804Z,22.73
2023-03-08T06:32:35.985Z,25.58
2023-03-08T06:35:04.139Z,24.05
2023-03-08T06:37:34.312Z,25.17
2023-03-08T06:40:03.608Z,25.33
2023-03-08T06:45:10.000Z,25.17
2023-03-08T06:47:37.489Z,25.15
2023-03-08T06:50:05.691Z,28.20
2023-03-08T06:52:37.595Z,29.10
2023-03-08T06:55:06.381Z,26.25
2023-03-08T06:57:33.606Z,28.58
2023-03-08T07:00:01.365Z,28.67
2023-03-08T07:02:28.590Z,29.05
2023-03-08T07:04:55.852Z,27.92
2023-03-08T07:07:23.125Z,32.15
2023-03-08T07:09:50.449Z,34.17
2023-03-08T07:12:17.758Z,32.53
2023-03-08T07:14:44.960Z,30.98
2023-03-08T07:17:12.218Z,30.27
2023-03-08T07:19:39.432Z,31.00
2023-03-08T07:22:06.638Z,31.63
2023-03-08T07:24:33.828Z,30.90
2023-03-08T07:27:01.029Z,33.40
2023-03-08T07:29:28.273Z,31.95
2023-03-08T07:31:55.497Z,33.63
2023-03-08T07:34:23.005Z,32.10
2023-03-08T07:36:51.136Z,34.83
2023-03-08T07:39:18.448Z,33.17
2023-03-08T07:41:47.481Z,37.38
2023-03-08T07:44:14.880Z,35.75
2023-03-08T07:46:42.155Z,35.17
2023-03-08T07:49:11.703Z,37.95
2023-03-08T07:51:39.169Z,33.47
2023-03-08T07:54:06.499Z,33.53
2023-03-08T07:56:33.713Z,36.17
2023-03-08T07:59:01.092Z,37.10
2023-03-08T08:01:28.332Z,34.65
2023-03-08T08:03:55.910Z,36.15
2023-03-08T08:06:23.243Z,33.55
2023-03-08T08:08:50.492Z,34.22
2023-03-08T08:11:22.025Z,34.08
2023-03-08T08:13:49.410Z,32.85
2023-03-08T08:16:17.372Z,32.50
2023-03-08T08:18:47.306Z,31.20
2023-03-08T08:21:15.712Z,31.13
2023-03-08T08:23:43.350Z,27.30
2023-03-08T08:26:21.172Z,32.10
2023-03-08T08:28:49.816Z,29.33
2023-03-08T08:31:18.188Z,28.73
2023-03-08T08:33:45.457Z,26.60
2023-03-08T08:36:14.133Z,28.10
2023-03-08T08:38:43.297Z,27.85
2023-03-08T08:41:10.642Z,27.65
2023-03-08T08:43:38.078Z,29.52
2023-03-08T08:46:05.788Z,26.50
2023-03-08T08:48:33.294Z,25.98
2023-03-08T08:51:01.135Z,28.52
2023-03-08T08:53:28.528Z,25.63
2023-03-08T08:55:55.873Z,27.85
2023-03-08T08:58:24.243Z,27.80
2023-03-08T09:00:51.691Z,25.80
2023-03-08T09:03:19.036Z,26.70
2023-03-08T09:05:46.597Z,26.10
2023-03-08T09:08:17.215Z,27.10
2023-03-08T09:10:45.044Z,27.80
2023-03-08T09:13:13.634Z,27.85
2023-03-08T09:15:41.383Z,27.17
2023-03-08T09:18:08.675Z,28.05
2023-03-08T09:20:35.897Z,30.75
2023-03-08T09:23:03.315Z,29.88
2023-03-08T09:25:30.625Z,31.55
2023-03-08T09:27:57.908Z,29.52
2023-03-08T09:30:25.151Z,31.40
2023-03-08T09:32:52.524Z,27.00
2023-03-08T09:35:19.847Z,29.67
2023-03-08T09:37:47.255Z,29.27
2023-03-08T09:40:19.480Z,29.13
2023-03-08T09:42:46.757Z,27.15
2023-03-08T09:45:19.991Z,24.33
2023-03-08T09:47:50.509Z,29.75
2023-03-08T09:50:21.960Z,29.05
2023-03-08T09:52:50.513Z,29.73
2023-03-08T09:55:30.512Z,29.08
2023-03-08T09:58:03.323Z,29.77
2023-03-08T10:00:35.081Z,31.63
2023-03-08T10:03:14.657Z,30.08
2023-03-08T10:05:53.111Z,28.38
2023-03-08T10:08:23.640Z,27.02
2023-03-08T10:10:54.070Z,28.08
2023-03-08T10:13:39.683Z,26.10
2023-03-08T10:16:07.114Z,27.08
2023-03-08T10:18:40.234Z,26.73
2023-03-08T10:21:10.116Z,25.45
2023-03-08T10:23:41.352Z,26.38
2023-03-08T10:26:12.648Z,27.17
2023-03-08T10:28:40.152Z,25.13
2023-03-08T10:31:40.092Z,22.13
2023-03-08T10:34:15.193Z,23.85
2023-03-08T10:36:58.387Z,21.35
2023-03-08T10:39:25.662Z,24.80
2023-03-08T10:41:55.206Z,25.83
2023-03-08T10:44:48.625Z,23.85
2023-03-08T10:47:23.392Z,24.23
2023-03-08T10:49:51.625Z,22.20
2023-03-08T10:52:24.712Z,20.00
2023-03-08T10:55:21.399Z,25.05
2023-03-08T10:57:54.895Z,18.70
2023-03-08T11:00:38.656Z,19.75
2023-03-08T11:03:11.865Z,17.42
2023-03-08T11:05:39.558Z,16.13
2023-03-08T11:08:16.061Z,16.65
2023-03-08T11:10:43.395Z,17.27
2023-03-08T11:13:21.808Z,16.90
2023-03-08T11:15:52.981Z,16.83
2023-03-08T11:18:27.476Z,19.17
2023-03-08T11:20:57.792Z,15.02
2023-03-08T11:23:30.107Z,17.20
2023-03-08T11:26:01.049Z,18.17
2023-03-08T11:28:46.877Z,19.40
2023-03-08T11:31:30.942Z,15.25
2023-03-08T11:34:02.090Z,15.93
2023-03-08T11:36:38.431Z,16.35
2023-03-08T11:39:19.785Z,15.20
2023-03-08T11:42:16.591Z,15.90
2023-03-08T11:44:52.807Z,16.25
2023-03-08T11:47:22.868Z,15.40
2023-03-08T11:50:08.846Z,16.25
2023-03-08T11:52:39.234Z,15.27
2023-03-08T11:55:29.901Z,16.30
2023-03-08T11:58:02.369Z,14.25
2023-03-08T12:00:32.025Z,16.63
2023-03-08T12:03:00.877Z,16.38
2023-03-08T12:05:30.343Z,17.67
2023-03-08T12:08:06.250Z,16.33
2023-03-08T12:10:41.814Z,17.52
2023-03-08T12:13:12.334Z,16.70
2023-03-08T12:15:43.739Z,15.55
2023-03-08T12:18:10.962Z,13.90
2023-03-08T12:20:40.792Z,16.25
2023-03-08T12:23:19.455Z,15.35
2023-03-08T12:25:48.792Z,12.85
2023-03-08T12:31:03.739Z,13.50
2023-03-08T12:33:32.541Z,14.65
2023-03-08T12:36:01.576Z,14.45
2023-03-08T12:38:31.393Z,14.45
2023-03-08T12:40:58.694Z,15.55
2023-03-08T12:43:26.019Z,13.43
2023-03-08T12:46:10.154Z,16.15
2023-03-08T12:48:47.591Z,13.93
2023-03-08T12:51:16.415Z,13.35
2023-03-08T12:53:43.626Z,13.38
2023-03-08T12:56:11.027Z,13.25
2023-03-08T12:58:39.813Z,12.18
2023-03-08T13:01:08.957Z,17.13
2023-03-08T13:03:41.538Z,13.13
2023-03-08T13:06:25.589Z,12.77
2023-03-08T13:08:56.268Z,11.05
2023-03-08T13:11:25.166Z,15.80
2023-03-08T13:13:56.025Z,12.75
2023-03-08T13:16:32.574Z,12.05
2023-03-08T13:19:15.116Z,14.60
2023-03-08T13:21:51.042Z,12.30
2023-03-08T13:24:21.406Z,14.80
2023-03-08T13:27:07.396Z,12.23
2023-03-08T13:29:34.787Z,13.82
2023-03-08T13:32:06.620Z,14.32
2023-03-08T13:34:35.215Z,13.88
2023-03-08T13:37:03.749Z,16.60
2023-03-08T13:39:31.569Z,16.02
2023-03-08T13:42:09.398Z,13.85
2023-03-08T13:44:36.828Z,13.88
2023-03-08T13:47:12.598Z,13.80
2023-03-08T13:49:42.392Z,14.88
2023-03-08T13:52:17.425Z,15.55
2023-03-08T13:54:50.000Z,13.68
2023-03-08T13:57:24.901Z,13.50
2023-03-08T13:59:59.914Z,15.20
2023-03-08T14:02:28.605Z,13.48
2023-03-08T14:04:56.352Z,13.45
2023-03-08T14:07:25.651Z,14.52
2023-03-08T14:09:52.925Z,14.05
2023-03-08T14:12:21.583Z,16.17
2023-03-08T14:14:59.760Z,12.02
2023-03-08T14:17:28.139Z,15.02
2023-03-08T14:20:00.051Z,13.93
2023-03-08T14:22:38.861Z,13.80
2023-03-08T14:25:07.265Z,13.65
2023-03-08T14:27:37.952Z,12.73
2023-03-08T14:30:16.225Z,13.38
2023-03-08T14:32:56.731Z,13.55
2023-03-08T14:35:28.113Z,13.15
2023-03-08T14:37:55.991Z,16.67
2023-03-08T14:40:36.396Z,18.52
2023-03-08T14:43:07.776Z,15.73
2023-03-08T14:45:43.030Z,19.42
2023-03-08T14:48:29.542Z,15.43
2023-03-08T14:51:02.792Z,15.43
2023-03-08T14:53:35.157Z,16.48
2023-03-08T14:56:15.367Z,17.02
2023-03-08T14:58:44.508Z,15.63
2023-03-08T15:01:11.890Z,14.65
2023-03-08T15:03:39.251Z,15.43
2023-03-08T15:06:11.522Z,13.57
2023-03-08T15:08:38.860Z,12.23
2023-03-08T15:11:07.537Z,12.13
2023-03-08T15:13:34.728Z,9.68
2023-03-08T15:16:01.995Z,7.75
2023-03-08T15:18:29.349Z,7.63
2023-03-08T15:20:57.452Z,7.00
2023-03-08T15:23:25.933Z,5.70
2023-03-08T15:25:53.514Z,5.40
2023-03-08T15:28:21.872Z,6.50
2023-03-08T15:30:50.235Z,7.17
2023-03-08T15:33:17.470Z,6.25
2023-03-08T15:35:44.805Z,7.82
2023-03-08T15:38:13.965Z,9.20
2023-03-08T15:43:09.001Z,8.43
2023-03-08T15:45:36.422Z,8.93
2023-03-08T15:48:03.677Z,9.77
2023-03-08T15:50:31.525Z,7.22
2023-03-08T15:52:59.151Z,8.15
2023-03-08T15:55:27.391Z,9.55
2023-03-08T15:57:55.085Z,7.40
2023-03-08T16:00:23.655Z,9.73
2023-03-08T16:02:53.361Z,7.97
2023-03-08T16:05:22.844Z,9.10
2023-03-08T16:07:57.712Z,8.57
2023-03-08T16:10:25.048Z,8.98
2023-03-08T16:12:52.482Z,7.63
2023-03-08T16:15:20.172Z,8.43
2023-03-08T16:17:48.509Z,11.45
2023-03-08T16:20:16.327Z,10.98
2023-03-08T16:22:43.770Z,8.50
2023-03-08T16:25:11.146Z,8.52
2023-03-08T16:27:38.540Z,9.32
2023-03-08T16:30:06.298Z,10.90
2023-03-08T16:32:33.992Z,8.93
2023-03-08T16:35:01.691Z,9.82
2023-03-08T16:37:29.205Z,11.25
2023-03-08T16:39:59.171Z,9.73
2023-03-08T16:42:26.527Z,10.55
2023-03-08T16:44:54.916Z,11.25
2023-03-08T16:47:22.936Z,10.63
2023-03-08T16:49:50.293Z,12.32
2023-03-08T16:52:17.984Z,13.63
2023-03-08T16:54:45.384Z,11.50
2023-03-08T16:57:19.166Z,17.02
2023-03-08T16:59:47.633Z,16.92
2023-03-08T17:02:22.474Z,13.20
2023-03-08T17:04:50.389Z,12.55
2023-03-08T17:07:17.955Z,13.35
2023-03-08T17:09:46.315Z,13.77
2023-03-08T17:12:13.860Z,12.50
2023-03-08T17:14:41.261Z,13.48
2023-03-08T17:17:10.420Z,13.73
2023-03-08T17:19:40.439Z,10.77
2023-03-08T17:22:08.367Z,14.13
2023-03-08T17:24:35.722Z,11.82
2023-03-08T17:27:03.028Z,13.20
2023-03-08T17:29:30.309Z,13.25
2023-03-08T17:31:57.568Z,12.27
2023-03-08T17:34:24.944Z,14.63
2023-03-08T17:36:52.391Z,13.73
2023-03-08T17:39:19.695Z,13.18
2023-03-08T17:41:47.119Z,14.27
2023-03-08T17:44:14.532Z,14.00
2023-03-08T17:46:42.375Z,14.68
2023-03-08T17:49:09.823Z,16.55
2023-03-08T17:51:37.095Z,13.60
2023-03-08T17:54:04.927Z,14.20
2023-03-08T17:56:32.624Z,17.80
2023-03-08T17:59:00.978Z,16.42
2023-03-08T18:01:30.102Z,18.20
2023-03-08T18:03:58.101Z,15.27
2023-03-08T18:06:28.530Z,18.48
2023-03-08T18:08:56.716Z,19.13
2023-03-08T18:11:24.476Z,16.67
2023-03-08T18:13:52.111Z,16.95
2023-03-08T18:16:20.280Z,16.23
2023-03-08T18:18:49.694Z,17.67
2023-03-08T18:21:18.146Z,18.73
2023-03-08T18:23:46.575Z,17.40
2023-03-08T18:26:14.595Z,17.03
2023-03-08T18:28:42.004Z,17.20
2023-03-08T18:31:10.218Z,19.05
2023-03-08T18:33:37.576Z,20.70
2023-03-08T18:36:04.984Z,18.23
2023-03-08T18:38:32.318Z,20.50
2023-03-08T18:40:59.604Z,17.77
2023-03-08T18:43:26.895Z,19.17
2023-03-08T18:45:55.461Z,21.02
2023-03-08T18:48:23.318Z,23.35
2023-03-08T18:50:50.960Z,18.85
2023-03-08T18:53:18.522Z,21.05
2023-03-08T18:55:55.815Z,17.95
2023-03-08T18:58:24.484Z,18.67
2023-03-08T19:00:51.956Z,18.38
2023-03-08T19:03:19.262Z,20.13
2023-03-08T19:05:46.696Z,21.13
2023-03-08T19:08:13.982Z,17.63
2023-03-08T19:10:41.222Z,19.60
2023-03-08T19:13:08.445Z,18.08
2023-03-08T19:15:39.479Z,18.27
2023-03-08T19:18:07.114Z,21.20
2023-03-08T19:20:37.618Z,18.83
2023-03-08T19:23:04.881Z,20.65
2023-03-08T19:25:33.117Z,19.92
2023-03-08T19:28:00.434Z,18.80
2023-03-08T19:30:28.562Z,21.38
2023-03-08T19:32:56.641Z,22.33
2023-03-08T19:35:23.969Z,19.90
2023-03-08T19:37:51.258Z,20.60
2023-03-08T19:40:18.638Z,21.35
2023-03-08T19:42:45.963Z,22.92
2023-03-08T19:45:13.410Z,23.88
2023-03-08T19:47:40.692Z,25.80
2023-03-08T19:50:08.325Z,23.83
2023-03-08T19:52:35.666Z,24.85
2023-03-08T19:55:03.158Z,20.83
2023-03-08T19:57:30.418Z,20.75
2023-03-08T20:00:00.402Z,22.92
2023-03-08T20:02:27.755Z,19.75
2023-03-08T20:04:55.033Z,19.65
2023-03-08T20:07:22.506Z,22.95
2023-03-08T20:09:52.501Z,21.48
2023-03-08T20:12:19.831Z,20.23
2023-03-08T20:14:47.208Z,17.05
2023-03-08T20:17:14.546Z,17.67
2023-03-08T20:19:41.933Z,20.13
2023-03-08T20:22:09.852Z,20.85
2023-03-08T20:24:37.158Z,20.15
2023-03-08T20:27:05.154Z,18.15
2023-03-08T20:29:32.682Z,19.27
2023-03-08T20:32:00.021Z,19.50
2023-03-08T20:34:27.512Z,18.60
2023-03-08T20:36:54.790Z,19.02
2023-03-08T20:39:22.575Z,21.08
2023-03-08T20:41:49.965Z,17.52
2023-03-08T20:44:17.314Z,19.70
2023-03-08T20:46:44.608Z,20.23
2023-03-08T20:49:12.462Z,19.05
2023-03-08T20:51:39.755Z,18.55
2023-03-08T20:54:07.056Z,19.63
2023-03-08T20:56:34.372Z,20.25
2023-03-08T20:59:02.400Z,19.02
2023-03-08T21:01:31.277Z,23.75
2023-03-08T21:03:58.968Z,19.33
2023-03-08T21:06:28.097Z,22.20
2023-03-08T21:08:55.432Z,18.73
2023-03-08T21:11:22.764Z,18.17
2023-03-08T21:13:50.663Z,19.58
2023-03-08T21:16:18.777Z,18.23
2023-03-08T21:18:49.283Z,18.20
2023-03-08T21:21:24.023Z,19.08
2023-03-08T21:23:54.251Z,16.92
2023-03-08T21:26:25.710Z,18.30
2023-03-08T21:28:57.122Z,17.73
2023-03-08T21:31:24.784Z,16.75
2023-03-08T21:33:53.598Z,18.05
2023-03-08T21:36:21.108Z,15.60
2023-03-08T21:38:52.155Z,18.77
2023-03-08T21:41:26.952Z,15.02
2023-03-08T21:43:54.369Z,17.27
2023-03-08T21:46:22.114Z,16.92
2023-03-08T21:48:49.452Z,17.48
2023-03-08T21:51:16.724Z,16.05
2023-03-08T21:53:44.144Z,15.93
2023-03-08T21:56:12.442Z,18.70
2023-03-08T21:58:39.826Z,16.40
2023-03-08T22:01:07.744Z,16.05
2023-03-08T22:03:35.915Z,15.32
2023-03-08T22:06:03.199Z,16.17
2023-03-08T22:08:30.448Z,16.10
2023-03-08T22:10:57.638Z,15.93
2023-03-08T22:13:24.910Z,16.75
2023-03-08T22:15:52.137Z,15.60
2023-03-08T22:18:19.403Z,17.25
2023-03-08T22:20:46.635Z,16.60
2023-03-08T22:23:14.098Z,20.33
2023-03-08T22:25:41.396Z,17.55
2023-03-08T22:28:08.828Z,18.85
2023-03-08T22:30:36.083Z,15.27
2023-03-08T22:33:03.403Z,17.10
2023-03-08T22:35:30.620Z,15.85
2023-03-08T22:37:58.254Z,15.05
2023-03-08T22:40:25.579Z,15.05
2023-03-08T22:42:52.907Z,14.90
2023-03-08T22:45:20.184Z,14.60
2023-03-08T22:47:47.566Z,14.82
2023-03-08T22:50:14.911Z,13.75
2023-03-08T22:52:42.197Z,15.27
2023-03-08T22:55:09.718Z,15.85
2023-03-08T22:57:37.917Z,14.02
2023-03-08T23:00:14.180Z,17.35
2023-03-08T23:02:45.545Z,14.75
2023-03-08T23:05:14.162Z,14.98
2023-03-08T23:07:41.738Z,15.60
2023-03-08T23:10:09.618Z,16.58
2023-03-08T23:12:37.541Z,15.13
2023-03-08T23:15:04.963Z,15.98
2023-03-08T23:17:32.318Z,17.90
2023-03-08T23:19:59.614Z,14.77
2023-03-08T23:22:26.878Z,14.70
2023-03-08T23:24:54.396Z,14.85
2023-03-08T23:27:21.730Z,14.95
2023-03-08T23:29:51.909Z,13.95
2023-03-08T23:32:19.171Z,13.80
2023-03-08T23:34:46.455Z,13.80
2023-03-08T23:37:13.768Z,12.50
2023-03-08T23:39:41.050Z,13.48
2023-03-08T23:42:08.335Z,12.43
2023-03-08T23:44:35.586Z,13.00
2023-03-08T23:47:02.947Z,15.38
2023-03-08T23:49:30.204Z,14.15
2023-03-08T23:51:57.433Z,14.65
2023-03-08T23:54:24.776Z,14.65
2023-03-08T23:56:51.980Z,16.27
2023-03-08T23:59:23.206Z,14.52
